Racine, Minnesota
Current Conditions -  °F | °C
As of 4:54 PM on Tuesday 21 Oct 2014 (Local Time) from KRST Reporting Station
Clear Clear  
Wind Chill: 55°   Ceiling: Unl
Heat Index: 55°   Visibility: 10mi
Dew Point: 40°   Wind: 12mph
Humidity: 57%   Direction: 120°ESE
Pressure: 30.17"   Gusts: NA
Location:  43.78°N, 92.48°W
Report Text: KRST 212154Z 12010KT 10SM CLR 13/04 A3017 RMK AO2 SLP223 T01280044
Loading
Personal Weather Stations






























Interactive Weather Map
Tropical Storm Tracking
New forecast layout! Learn more

10-Day Weather Forecast

Advertisements
Track Severe Weather on mobile